Aérodrome :







RETROUVEZ-NOUS SUR...

 
LOGIN :

S'inscrire | Disclaimer

   EN    FR    IT 

 









Légende :    VFR   VFR Marginal   IFR   IFR Intensif   IFR Très Intensif
Visi : 
Plafond : 
>= 8 km
>= 3000ft
5 à 8 km
1000 à 3000 ft
1500m à 5 km
500 à 1000 ft
800 à 1500m
200 à 500 ft
< 800m
< 200 ft
Symboles :   Orages  Brouillard  Fortes neiges  Fortes précipitations  Vent > 20 kt






- Altitude de l'aérodrome : 352 ft


KAUG - Augusta State

DERNIER METAR :
  • 261653Z AUTO 03007KT 10SM SCT044 BKN090 OVC110 05/M03 A3003 RMK AO2 SLP172 T00501033

METARs EXPIRÉS :
  • 261553Z AUTO 03006KT 10SM BKN090 OVC110 04/M03 A3004 RMK AO2 SLP177 T00441028
  • 261453Z AUTO 03009KT 10SM BKN095 OVC120 03/M03 A3005 RMK AO2 SLP177 60000 T00331028 51014

TAF KAUG
Valide du 26 à 12h jusqu'au 27 à 12h UTC


261122Z 2612/2712 VRB03KT P6SM BKN060
FM261600 05007KT 6SM BR OVC035
FM271000 06010G19KT 2SM -RASN BR OVC009



MET'MAP, la Météo Aéronautique d'un coup d'oeil ! - Copyright ORBIFLY Décembre 2007 - Disclaimer

ORBIFLY MET'MAP TEAM :

Programmation & Développement : Alexandra Zaïnal
Sur une idée originale de : Baudouin d'Aumeries
Assistance à la programmation : Marc-Olivier Méhu
Soutien technique & logistique : Manuel Goepfert

Contact : metmap@orbifly.com




SOURCES & CREDITS :

   NOAA